< Typhoon 196719 1967 Season Typhoon 196721 >
Typhoon 196720 (MARGE)
General InformationTrack Information on Google Maps || Disaster Info.ResourceGoogle EarthGE AnimationAtom FeedGeoJSON
Detalied Best Track (Time Zone = UTC)
Year Month Day Hour Lat. Long. Pressure (hPa) Wind (kt) Class Image Chart
1967 8 23 18 18.2 142.4 1002 0 2 -- Chart
1967 8 24 00 18.6 141.3 1002 0 2 -- Chart
1967 8 24 06 18.8 140.2 1002 0 2 -- Chart
1967 8 24 12 19.0 139.0 1002 0 2 -- Chart
1967 8 24 18 19.2 138.0 1002 0 2 -- Chart
1967 8 25 00 19.5 136.9 1002 0 2 -- Chart
1967 8 25 06 19.8 135.3 996 0 9 -- Chart
1967 8 25 12 20.2 134.1 994 0 9 -- Chart
1967 8 25 18 20.2 132.8 988 0 9 -- Chart
1967 8 26 00 20.0 131.1 984 0 9 -- Chart
1967 8 26 06 20.0 129.7 976 0 9 -- Chart
1967 8 26 12 19.7 128.0 970 0 9 -- Chart
1967 8 26 18 19.0 126.1 960 0 9 -- Chart
1967 8 27 00 18.5 125.1 944 0 9 -- Chart
1967 8 27 06 17.9 124.3 940 0 9 -- Chart
1967 8 27 12 17.5 123.6 945 0 9 -- Chart
1967 8 27 18 16.9 123.1 956 0 9 -- Chart
1967 8 28 00 17.0 123.0 976 0 9 -- Chart
1967 8 28 06 17.5 123.0 980 0 9 -- Chart
1967 8 28 12 18.1 122.6 988 0 9 -- Chart
1967 8 28 18 18.8 121.9 988 0 9 -- Chart
1967 8 29 00 19.7 121.1 990 0 9 -- Chart
1967 8 29 06 20.0 120.1 990 0 9 -- Chart
1967 8 29 12 20.1 119.3 992 0 9 -- Chart
1967 8 29 18 20.2 118.5 992 0 9 -- Chart
1967 8 30 00 20.5 117.7 994 0 9 -- Chart
Japan Meteorological Agency Best Track Data | Correction Date : 1989-06-01
< Typhoon 196719 1967 Season Typhoon 196721 >

Help